Time;durP1;ratioP1;P1;durP2;ratioP2;P2;SDS_P1;SDS_P2;PMS_P1;PMS_P2;Temp;Humidity;BMP_temperature;BMP_pressure;BME280_temperature;BME280_humidity;BME280_pressure;Samples;Min_cycle;Max_cycle;Signal;HPM_P1;HPM_P2
2022/02/01 00:00:14;;;;;;;7.85;2.85;;;;;;;-0.71;70.38;99476.94;5062619;28;20068;-74
2022/02/01 00:02:51;;;;;;;6.20;2.75;;;;;;;-0.76;70.55;99464.09;5063055;28;20024;-72
2022/02/01 00:05:28;;;;;;;9.32;3.83;;;;;;;-0.66;71.09;99467.72;5063264;28;20100;-73
2022/02/01 00:08:25;;;;;;;10.45;3.88;;;;;;;-0.66;71.20;99460.06;5063171;28;20048;-74
2022/02/01 00:13:47;;;;;;;9.73;3.50;;;;;;;-0.58;72.08;99450.03;5063389;28;20024;-74
2022/02/01 00:16:50;;;;;;;14.25;3.63;;;;;;;-0.59;72.14;99438.09;5045330;28;20024;-74
2022/02/01 00:35:44;;;;;;;5.07;3.00;;;;;;;-0.24;72.96;99411.63;5066939;28;20113;-73
2022/02/01 00:40:37;;;;;;;8.85;2.22;;;;;;;0.03;73.97;99379.78;5066897;28;20024;-74
2022/02/01 00:43:05;;;;;;;7.40;2.33;;;;;;;0.28;74.72;99389.56;5066877;28;20028;-74
2022/02/01 00:45:31;;;;;;;10.10;2.33;;;;;;;0.43;75.32;99384.69;5066866;28;20028;-75
2022/02/01 00:47:56;;;;;;;6.10;2.25;;;;;;;0.56;75.25;99380.66;5066604;28;20021;-74
2022/02/01 00:50:21;;;;;;;8.57;2.78;;;;;;;0.65;77.41;99367.19;5048809;28;20032;-74
2022/02/01 00:52:47;;;;;;;8.18;2.83;;;;;;;0.79;78.88;99363.94;5048595;28;20504;-77
2022/02/01 00:55:13;;;;;;;13.70;3.33;;;;;;;0.90;78.93;99353.88;5048823;28;20052;-74
2022/02/01 00:57:38;;;;;;;6.07;2.78;;;;;;;1.03;78.96;99347.25;5066663;28;20033;-73
2022/02/01 01:00:10;;;;;;;10.00;2.97;;;;;;;1.14;78.65;99335.47;5048468;28;20543;-73
2022/02/01 01:02:35;;;;;;;6.30;2.90;;;;;;;1.11;78.74;99318.41;5066639;28;20051;-74
2022/02/01 01:05:01;;;;;;;9.85;2.58;;;;;;;1.29;78.66;99331.38;5067204;28;20462;-74
2022/02/01 01:07:26;;;;;;;12.68;2.95;;;;;;;1.31;79.17;99320.31;5066366;28;20025;-75
2022/02/01 01:09:53;;;;;;;9.18;2.70;;;;;;;1.31;79.08;99299.03;5066419;28;20021;-74
2022/02/01 01:12:19;;;;;;;7.50;3.00;;;;;;;1.41;79.63;99311.06;5066366;28;20031;-74
2022/02/01 01:44:36;;;;;;;6.68;2.85;;;;;;;1.66;78.48;99311.31;5065777;28;20032;-74
2022/02/01 01:55:16;;;;;;;9.63;2.38;;;;;;;1.63;78.39;99295.94;5065554;28;20028;-74
2022/02/01 01:57:42;;;;;;;9.35;2.63;;;;;;;1.68;77.44;99291.72;5065587;28;20021;-75
2022/02/01 02:00:18;;;;;;;10.27;2.63;;;;;;;1.64;77.77;99294.25;5065338;28;20048;-74
2022/02/01 02:02:43;;;;;;;6.75;2.42;;;;;;;1.61;77.55;99287.41;5065647;28;20021;-75
2022/02/01 02:05:09;;;;;;;8.77;2.78;;;;;;;1.51;77.76;99272.78;5047418;28;20028;-75
2022/02/01 02:07:34;;;;;;;8.20;2.40;;;;;;;1.58;77.60;99289.94;5065497;28;20048;-74
2022/02/01 02:10:01;;;;;;;8.05;2.55;;;;;;;1.57;77.44;99283.94;5065089;28;20017;-74
2022/02/01 02:15:34;;;;;;;8.75;3.20;;;;;;;1.46;76.59;99288.09;5051869;28;20068;-74
2022/02/01 02:18:01;;;;;;;8.95;2.00;;;;;;;1.39;77.25;99282.03;5065148;28;20033;-75
2022/02/01 02:20:41;;;;;;;5.60;2.10;;;;;;;1.25;77.51;99268.28;5065235;28;20029;-75
2022/02/01 02:23:08;;;;;;;5.43;1.75;;;;;;;1.21;77.27;99283.59;5065109;28;20029;-74
2022/02/01 02:25:38;;;;;;;10.23;2.03;;;;;;;1.15;77.54;99286.03;5064756;28;20087;-74
2022/02/01 02:28:05;;;;;;;6.63;1.60;;;;;;;1.16;77.11;99289.47;5064739;28;20021;-74
2022/02/01 02:30:30;;;;;;;17.00;2.60;;;;;;;1.04;76.91;99274.84;5064693;28;20021;-74
2022/02/01 02:33:05;;;;;;;6.28;1.65;;;;;;;1.06;77.00;99289.34;5046580;28;20028;-74
2022/02/01 02:35:34;;;;;;;5.05;1.42;;;;;;;1.03;76.67;99284.22;5064737;28;20378;-75
2022/02/01 02:38:09;;;;;;;8.13;1.75;;;;;;;1.03;76.63;99283.34;5064606;28;20140;-74
2022/02/01 02:46:25;;;;;;;8.55;1.40;;;;;;;0.82;76.30;99285.66;5002521;28;20042;-74
2022/02/01 02:48:52;;;;;;;6.57;1.75;;;;;;;0.70;76.15;99281.22;5002211;28;20054;-74
2022/02/01 02:51:18;;;;;;;13.85;1.85;;;;;;;0.68;76.67;99293.13;5002268;28;20065;-72
2022/02/01 02:53:43;;;;;;;12.68;1.60;;;;;;;0.69;76.25;99288.88;4985356;28;20026;-72
2022/02/01 02:56:09;;;;;;;5.95;1.30;;;;;;;0.56;76.46;99277.66;4985630;28;20475;-72
2022/02/01 02:58:34;;;;;;;6.07;1.73;;;;;;;0.58;75.99;99281.06;5002107;28;20038;-72
2022/02/01 03:01:00;;;;;;;6.88;1.40;;;;;;;0.64;75.68;99287.97;5002221;28;20034;-72
2022/02/01 03:03:26;;;;;;;10.30;1.60;;;;;;;0.50;75.68;99275.84;5002091;28;20038;-71
2022/02/01 03:05:52;;;;;;;9.35;1.42;;;;;;;0.54;75.68;99284.41;5002126;28;20018;-72
2022/02/01 03:08:17;;;;;;;4.13;1.25;;;;;;;0.49;75.57;99280.09;5002027;28;20026;-72
2022/02/01 03:10:44;;;;;;;5.15;1.58;;;;;;;0.45;75.49;99274.91;5002061;28;20066;-73
2022/02/01 03:13:15;;;;;;;6.55;1.48;;;;;;;0.43;75.13;99279.16;5001825;28;20028;-73
2022/02/01 03:15:48;;;;;;;6.47;1.52;;;;;;;0.26;75.11;99258.47;5001958;28;20030;-72
2022/02/01 03:20:57;;;;;;;6.25;1.75;;;;;;;0.24;75.27;99271.19;5063779;28;20059;-71
2022/02/01 03:23:23;;;;;;;6.18;1.38;;;;;;;0.18;75.06;99263.44;5063576;28;20025;-72
2022/02/01 03:25:48;;;;;;;2.28;1.30;;;;;;;0.17;74.70;99270.25;5063509;28;20032;-71
2022/02/01 03:28:14;;;;;;;6.85;1.40;;;;;;;0.19;74.71;99275.41;5062911;28;20024;-72
2022/02/01 03:30:41;;;;;;;7.82;1.38;;;;;;;0.14;74.84;99275.31;5062331;28;20083;-71
2022/02/01 03:33:07;;;;;;;5.85;1.48;;;;;;;0.13;74.79;99277.84;5063467;28;20025;-71
2022/02/01 03:35:32;;;;;;;9.23;1.48;;;;;;;0.03;75.15;99281.94;5063490;28;20031;-71
2022/02/01 03:37:58;;;;;;;6.88;1.65;;;;;;;0.01;74.94;99281.91;5063244;28;20041;-71
2022/02/01 03:40:23;;;;;;;7.10;1.45;;;;;;;-0.02;74.90;99275.06;5063651;28;20031;-72
2022/02/01 03:42:50;;;;;;;7.30;1.60;;;;;;;-0.11;75.13;99269.81;5063324;28;20075;-71
2022/02/01 03:45:15;;;;;;;7.03;1.42;;;;;;;-0.13;74.87;99263.84;5063759;28;20025;-72
2022/02/01 03:47:41;;;;;;;6.20;1.50;;;;;;;-0.14;74.83;99262.09;5063416;28;20375;-72
2022/02/01 03:50:10;;;;;;;8.73;1.88;;;;;;;-0.17;74.64;99256.94;5063428;28;20040;-72
2022/02/01 03:52:35;;;;;;;9.90;3.22;;;;;;;-0.30;74.38;99238.88;5045138;28;20037;-72
2022/02/01 03:55:01;;;;;;;4.93;1.50;;;;;;;-0.27;74.26;99249.13;5063079;28;20032;-72
2022/02/01 03:57:26;;;;;;;6.05;1.60;;;;;;;-0.21;74.05;99255.19;5063386;28;20017;-71
2022/02/01 03:59:52;;;;;;;3.63;1.52;;;;;;;-0.25;73.99;99241.50;5063074;28;20021;-71
2022/02/01 04:02:18;;;;;;;9.65;1.92;;;;;;;-0.24;73.92;99238.16;5045189;28;20085;-70
2022/02/01 04:04:46;;;;;;;9.60;1.50;;;;;;;-0.35;73.84;99214.16;5062731;28;20112;-71
2022/02/01 04:07:11;;;;;;;6.82;1.70;;;;;;;-0.33;73.59;99223.53;5063167;28;20021;-70
2022/02/01 04:09:37;;;;;;;6.72;2.05;;;;;;;-0.36;73.29;99226.03;5062785;28;20017;-71
2022/02/01 04:12:05;;;;;;;6.05;1.83;;;;;;;-0.37;73.34;99224.31;5062894;28;20033;-70
2022/02/01 04:14:33;;;;;;;10.32;1.30;;;;;;;-0.39;73.16;99216.66;5063147;28;20021;-72
2022/02/01 04:17:01;;;;;;;9.18;2.25;;;;;;;-0.48;72.78;99219.06;5062988;28;20025;-70
2022/02/01 04:19:29;;;;;;;8.77;1.52;;;;;;;-0.46;72.84;99221.63;5045070;28;20037;-70
2022/02/01 04:24:24;;;;;;;2.78;1.35;;;;;;;-0.53;72.63;99221.50;5063131;28;20037;-71
2022/02/01 04:26:49;;;;;;;3.30;1.40;;;;;;;-0.52;72.56;99230.00;5062841;28;20108;-72
2022/02/01 04:29:15;;;;;;;9.25;2.25;;;;;;;-0.59;72.45;99216.28;5062942;28;20025;-72
2022/02/01 04:31:40;;;;;;;4.18;1.58;;;;;;;-0.50;72.22;99224.09;5062997;28;20029;-71
2022/02/01 04:34:05;;;;;;;8.90;1.35;;;;;;;-0.51;72.02;99214.72;5062778;28;20017;-70
2022/02/01 04:36:31;;;;;;;5.88;1.73;;;;;;;-0.51;71.88;99211.31;5062792;28;20029;-71
2022/02/01 04:38:57;;;;;;;7.53;1.83;;;;;;;-0.59;71.40;99212.91;5063229;28;20040;-71
2022/02/01 04:41:25;;;;;;;6.20;1.55;;;;;;;-0.56;71.38;99192.56;5062621;28;20043;-71
2022/02/01 04:43:50;;;;;;;9.35;1.98;;;;;;;-0.66;71.21;99174.56;5062757;28;20464;-71
2022/02/01 04:46:16;;;;;;;2.30;1.00;;;;;;;-0.56;71.24;99195.94;5044713;28;20029;-71
2022/02/01 04:48:41;;;;;;;10.30;1.92;;;;;;;-0.60;71.08;99201.84;5062640;28;20036;-70
2022/02/01 04:51:07;;;;;;;6.78;2.25;;;;;;;-0.58;70.95;99199.31;5062595;28;20025;-72
2022/02/01 04:53:32;;;;;;;3.95;1.50;;;;;;;-0.56;70.91;99201.03;5062526;28;20056;-70
2022/02/01 04:55:58;;;;;;;6.47;1.38;;;;;;;-0.68;70.67;99183.84;5062463;28;20037;-70
2022/02/01 04:58:24;;;;;;;6.63;1.60;;;;;;;-0.70;70.81;99175.31;5062571;28;20029;-71
2022/02/01 05:00:50;;;;;;;7.40;1.60;;;;;;;-0.58;70.56;99205.28;5062750;28;20095;-70
2022/02/01 05:03:16;;;;;;;6.13;1.70;;;;;;;-0.55;70.74;99199.34;5062645;28;20078;-71
2022/02/01 05:05:42;;;;;;;8.27;1.40;;;;;;;-0.57;70.51;99186.59;5044825;28;20388;-71
2022/02/01 05:08:09;;;;;;;4.82;1.40;;;;;;;-0.56;70.44;99179.81;5062604;28;20025;-71
2022/02/01 05:10:35;;;;;;;10.85;1.60;;;;;;;-0.56;70.49;99185.75;5062409;28;20021;-70
2022/02/01 05:15:37;;;;;;;5.88;2.00;;;;;;;-0.58;70.03;99181.47;5062701;28;20025;-71
2022/02/01 05:18:02;;;;;;;8.60;1.95;;;;;;;-0.57;69.94;99193.38;5048045;28;20466;-70
2022/02/01 05:20:46;;;;;;;6.18;1.40;;;;;;;-0.55;70.14;99195.13;5066211;28;20032;-71
2022/02/01 05:23:11;;;;;;;11.93;1.38;;;;;;;-0.59;70.14;99180.59;5066020;28;20554;-71
2022/02/01 05:25:36;;;;;;;7.15;1.40;;;;;;;-0.47;69.87;99194.38;5066013;28;20025;-71
2022/02/01 05:28:02;;;;;;;5.72;1.92;;;;;;;-0.40;70.03;99202.16;5047783;28;20021;-71
2022/02/01 05:30:28;;;;;;;4.82;1.60;;;;;;;-0.36;69.79;99203.06;5048220;28;20052;-71
2022/02/01 05:32:54;;;;;;;8.93;1.50;;;;;;;-0.23;69.70;99198.16;5065769;28;20028;-71
2022/02/01 05:35:20;;;;;;;5.70;1.50;;;;;;;-0.27;69.83;99166.66;5065886;28;20017;-72
2022/02/01 05:37:45;;;;;;;7.28;1.85;;;;;;;-0.09;69.62;99180.53;5047580;28;20056;-70
2022/02/01 05:40:11;;;;;;;8.65;1.50;;;;;;;-0.14;69.46;99165.16;5047402;28;20021;-70
2022/02/01 05:42:55;;;;;;;3.85;1.75;;;;;;;-0.11;69.36;99160.09;5065472;28;20043;-71
2022/02/01 05:45:20;;;;;;;7.05;1.58;;;;;;;-0.01;69.25;99168.75;5065506;28;20052;-71
2022/02/01 05:47:45;;;;;;;16.73;1.85;;;;;;;-0.03;69.30;99162.75;5065649;28;20089;-72
2022/02/01 05:50:11;;;;;;;10.05;2.92;;;;;;;-0.06;68.61;99157.59;5065464;28;20017;-71
2022/02/01 05:52:36;;;;;;;8.27;3.00;;;;;;;-0.06;68.64;99155.91;5047421;28;20135;-70
2022/02/01 05:55:02;;;;;;;5.07;1.77;;;;;;;-0.16;68.32;99148.97;5065477;28;20023;-72
2022/02/01 05:57:27;;;;;;;4.70;1.48;;;;;;;-0.08;68.57;99138.88;5065731;28;20285;-64
2022/02/01 05:59:53;;;;;;;7.78;1.65;;;;;;;-0.03;68.41;99135.56;5065764;28;20255;-71
2022/02/01 06:02:19;;;;;;;6.85;1.27;;;;;;;-0.05;68.07;99131.28;5065448;28;20566;-66
2022/02/01 06:04:44;;;;;;;7.45;1.60;;;;;;;-0.06;67.93;99132.97;5065599;28;20100;-71
2022/02/01 06:07:10;;;;;;;10.50;2.47;;;;;;;-0.01;68.08;99128.78;5065348;28;20477;-67
2022/02/01 06:09:35;;;;;;;5.75;2.72;;;;;;;-0.03;68.06;99115.13;5065148;28;20028;-67
2022/02/01 06:12:01;;;;;;;4.35;2.17;;;;;;;0.06;67.93;99116.09;5064898;28;20020;-67
2022/02/01 06:14:26;;;;;;;11.65;1.77;;;;;;;0.02;67.94;99097.34;5065366;28;20029;-66
2022/02/01 06:16:51;;;;;;;6.25;1.85;;;;;;;0.11;67.82;99107.66;5065102;28;20029;-66
2022/02/01 06:19:17;;;;;;;4.88;1.60;;;;;;;0.08;67.67;99097.41;5064892;28;20061;-66
2022/02/01 06:21:42;;;;;;;6.22;1.45;;;;;;;0.11;67.59;99105.13;5064908;28;20044;-67
2022/02/01 06:24:08;;;;;;;4.68;1.52;;;;;;;0.12;67.58;99090.66;5046849;28;20326;-67
2022/02/01 06:26:34;;;;;;;11.90;2.38;;;;;;;0.15;67.61;99084.72;5064732;28;20025;-67
2022/02/01 06:29:00;;;;;;;6.25;1.88;;;;;;;0.11;67.42;99077.03;5063576;28;20483;-67
2022/02/01 06:31:25;;;;;;;4.13;1.58;;;;;;;0.17;67.43;99078.81;5064614;28;20036;-67
2022/02/01 06:33:50;;;;;;;7.82;1.80;;;;;;;0.13;67.40;99068.56;5046359;28;20083;-71
2022/02/01 06:36:16;;;;;;;11.77;1.73;;;;;;;0.17;67.28;99073.72;5064706;28;20302;-67
2022/02/01 06:38:41;;;;;;;8.15;1.55;;;;;;;0.13;66.99;99069.41;5063955;28;20060;-69
2022/02/01 06:41:08;;;;;;;7.55;1.58;;;;;;;0.26;66.93;99075.50;5064496;28;20488;-68
2022/02/01 06:43:33;;;;;;;8.30;2.15;;;;;;;0.17;66.72;99073.72;5046218;28;20097;-68
2022/02/01 06:45:59;;;;;;;8.75;1.92;;;;;;;0.19;66.67;99063.53;5064513;28;20029;-67
2022/02/01 06:48:25;;;;;;;8.82;1.95;;;;;;;0.29;66.86;99072.16;5064269;28;20116;-67
2022/02/01 06:50:52;;;;;;;7.97;2.38;;;;;;;0.30;66.63;99072.19;5046166;28;20075;-69
2022/02/01 06:53:19;;;;;;;8.25;1.73;;;;;;;0.24;66.34;99046.56;5064360;28;20528;-68
2022/02/01 06:55:56;;;;;;;4.93;1.33;;;;;;;0.36;66.21;99056.06;5064359;28;20035;-67
2022/02/01 06:58:22;;;;;;;7.72;1.77;;;;;;;0.32;66.10;99047.50;5064417;28;20029;-68
2022/02/01 07:00:47;;;;;;;10.65;2.00;;;;;;;0.41;66.40;99051.88;5064118;28;20075;-68
2022/02/01 07:03:13;;;;;;;6.47;1.73;;;;;;;0.47;65.91;99057.03;5045910;28;20096;-68
2022/02/01 07:05:38;;;;;;;10.95;1.88;;;;;;;0.42;65.56;99056.13;5063919;28;20029;-68
2022/02/01 07:08:04;;;;;;;5.15;1.48;;;;;;;0.41;65.02;99040.78;5063861;28;20056;-68
2022/02/01 07:10:29;;;;;;;6.20;1.60;;;;;;;0.33;65.02;99015.19;5063881;28;20468;-68
2022/02/01 07:12:55;;;;;;;5.05;1.58;;;;;;;0.46;65.23;99032.31;5063945;28;20024;-68
2022/02/01 07:15:20;;;;;;;12.88;1.90;;;;;;;0.45;64.67;99024.66;5063903;28;20036;-68
2022/02/01 07:17:48;;;;;;;7.18;1.50;;;;;;;0.49;65.29;99009.41;5064030;28;20108;-69
2022/02/01 07:20:14;;;;;;;7.07;1.48;;;;;;;0.47;64.91;99005.97;5063786;28;20133;-69
2022/02/01 07:22:42;;;;;;;4.78;1.77;;;;;;;0.58;64.79;99010.31;5063826;28;20052;-69
2022/02/01 07:25:14;;;;;;;7.90;1.50;;;;;;;0.57;65.02;98990.72;5063928;28;20040;-69
2022/02/01 07:27:42;;;;;;;9.00;1.50;;;;;;;0.57;64.49;98993.28;5064201;28;20025;-70
2022/02/01 07:30:11;;;;;;;14.23;2.30;;;;;;;0.63;64.59;98989.91;5063145;28;20023;-70
2022/02/01 07:32:38;;;;;;;8.50;1.50;;;;;;;0.64;64.52;98984.81;5063334;28;20036;-69
2022/02/01 07:35:04;;;;;;;7.45;1.42;;;;;;;0.62;64.38;98989.09;5063595;28;20028;-69
2022/02/01 07:37:30;;;;;;;12.25;1.95;;;;;;;0.62;64.25;98981.41;5045486;28;20045;-69
2022/02/01 07:39:56;;;;;;;7.68;2.10;;;;;;;0.59;64.07;98973.72;5063267;28;20092;-71
2022/02/01 07:42:21;;;;;;;6.80;1.75;;;;;;;0.56;64.07;98986.47;5063409;28;20021;-68
2022/02/01 07:44:46;;;;;;;4.40;1.63;;;;;;;0.54;63.64;98986.47;5063605;28;20033;-68
2022/02/01 07:47:18;;;;;;;6.15;1.67;;;;;;;0.57;63.60;98977.97;5063548;28;20461;-68
2022/02/01 07:49:44;;;;;;;3.97;1.35;;;;;;;0.55;63.87;98962.63;5063504;28;20025;-68
2022/02/01 07:52:09;;;;;;;9.70;1.98;;;;;;;0.63;63.59;98952.47;5045372;28;20047;-68
2022/02/01 07:54:35;;;;;;;3.63;1.67;;;;;;;0.77;63.27;98959.41;5045561;28;20036;-68
2022/02/01 07:57:00;;;;;;;4.43;1.55;;;;;;;0.80;63.35;98952.59;5063192;28;20052;-68
2022/02/01 07:59:25;;;;;;;10.00;1.90;;;;;;;0.92;63.22;98949.31;5063277;28;20033;-68
2022/02/01 08:01:51;;;;;;;7.65;2.03;;;;;;;1.03;63.45;98945.94;5045275;28;20092;-69
2022/02/01 08:04:16;;;;;;;6.80;1.95;;;;;;;1.16;63.48;98949.44;5063081;28;20032;-69
2022/02/01 08:06:42;;;;;;;5.85;1.85;;;;;;;1.26;63.08;98942.69;5063344;28;20017;-69
2022/02/01 08:09:18;;;;;;;6.97;3.00;;;;;;;1.34;61.89;98928.25;5063413;28;20024;-69
2022/02/01 08:11:43;;;;;;;6.47;1.55;;;;;;;1.41;61.40;98919.75;5063207;28;20029;-69
2022/02/01 08:16:49;;;;;;;5.85;1.38;;;;;;;1.39;60.86;98893.31;5063059;28;20103;-68
2022/02/01 08:21:51;;;;;;;5.38;1.60;;;;;;;1.53;60.95;98884.84;5063223;28;20207;-69
2022/02/01 08:24:17;;;;;;;6.07;1.33;;;;;;;1.49;60.21;98889.09;5045155;28;20056;-69
2022/02/01 08:26:43;;;;;;;3.55;1.58;;;;;;;1.48;60.02;98882.28;5063130;28;20020;-69
2022/02/01 08:29:09;;;;;;;5.93;1.25;;;;;;;1.40;60.13;98856.69;5063135;28;20041;-69
2022/02/01 08:31:34;;;;;;;5.13;1.38;;;;;;;1.52;60.15;98871.19;5063102;28;20025;-69
2022/02/01 08:34:01;;;;;;;7.85;1.40;;;;;;;1.51;60.13;98854.16;5062951;28;20506;-69
2022/02/01 08:36:26;;;;;;;2.92;1.52;;;;;;;1.55;59.63;98855.88;5045121;28;20056;-68
2022/02/01 08:38:52;;;;;;;2.78;0.90;;;;;;;1.61;59.91;98858.44;5062818;28;20041;-69
2022/02/01 08:41:17;;;;;;;3.42;1.25;;;;;;;1.70;60.16;98836.28;5045302;28;20021;-68
2022/02/01 08:43:46;;;;;;;4.70;1.50;;;;;;;1.78;60.41;98834.63;5062981;28;20035;-69
2022/02/01 08:46:12;;;;;;;10.75;2.03;;;;;;;1.90;60.45;98838.06;5063076;28;20115;-69
2022/02/01 08:48:37;;;;;;;7.97;2.03;;;;;;;1.88;60.34;98826.94;5062969;28;20009;-69
2022/02/01 08:51:07;;;;;;;8.52;1.50;;;;;;;2.01;60.37;98833.81;5045768;28;20032;-68
2022/02/01 08:53:46;;;;;;;6.82;1.75;;;;;;;2.01;59.88;98833.81;5066718;28;20024;-68
2022/02/01 08:57:20;;;;;;;5.55;1.38;;;;;;;2.02;60.22;98817.59;5066932;28;20032;-69
2022/02/01 08:58:57;;;;;;;3.38;1.30;;;;;;;2.15;60.26;98825.28;5066294;28;20025;-69
2022/02/01 09:01:23;;;;;;;7.90;1.30;;;;;;;2.14;60.12;98810.78;5066486;28;20059;-69
2022/02/01 09:03:48;;;;;;;5.15;1.40;;;;;;;2.25;60.10;98805.66;5066614;28;20032;-69
2022/02/01 09:06:13;;;;;;;5.70;1.63;;;;;;;2.24;59.91;98794.53;5048820;28;20017;-70
2022/02/01 09:08:38;;;;;;;8.98;1.52;;;;;;;2.30;59.83;98794.53;5048575;28;20070;-70
2022/02/01 09:11:04;;;;;;;5.45;1.70;;;;;;;2.27;59.87;98796.25;5066258;28;20048;-69
2022/02/01 09:13:30;;;;;;;7.88;1.98;;;;;;;2.25;59.96;98783.47;5066403;28;20025;-69
2022/02/01 09:15:55;;;;;;;8.48;2.10;;;;;;;2.20;59.77;98780.91;5048337;28;20031;-69
2022/02/01 09:18:21;;;;;;;4.20;1.40;;;;;;;2.11;60.26;98765.53;5066151;28;20104;-69
2022/02/01 09:20:46;;;;;;;5.18;2.38;;;;;;;2.15;59.92;98769.81;5066096;28;20389;-70
2022/02/01 09:23:12;;;;;;;5.20;1.67;;;;;;;2.12;59.07;98756.13;5066262;28;20147;-70
2022/02/01 09:25:37;;;;;;;5.53;2.38;;;;;;;2.04;59.30;98751.03;5066030;28;20103;-69
2022/02/01 09:28:03;;;;;;;2.55;1.30;;;;;;;1.87;59.07;98730.56;5048358;28;20021;-69
2022/02/01 09:30:30;;;;;;;10.00;1.85;;;;;;;1.84;59.36;98734.81;5048083;28;20023;-69
2022/02/01 09:32:55;;;;;;;7.85;1.55;;;;;;;1.79;59.21;98735.69;5066042;28;20016;-69
2022/02/01 09:35:21;;;;;;;8.80;2.50;;;;;;;1.70;58.99;98726.28;5066248;28;20032;-69
2022/02/01 09:37:48;;;;;;;5.15;1.48;;;;;;;1.62;58.86;98728.84;5065756;28;20090;-69
2022/02/01 09:40:14;;;;;;;4.05;1.50;;;;;;;1.50;59.06;98722.03;5065529;28;20029;-69
2022/02/01 09:42:39;;;;;;;11.27;2.15;;;;;;;1.38;58.97;98710.06;5065644;28;20025;-68
2022/02/01 09:45:06;;;;;;;5.57;2.03;;;;;;;1.35;58.93;98712.59;5065787;28;20456;-69
2022/02/01 09:47:41;;;;;;;3.50;1.63;;;;;;;1.23;59.65;98695.56;5065617;28;20040;-69
2022/02/01 09:50:07;;;;;;;11.43;1.92;;;;;;;1.17;59.77;98668.25;5065687;28;20037;-68
2022/02/01 09:52:33;;;;;;;7.00;3.17;;;;;;;1.31;60.16;98681.06;5065748;28;20040;-69
2022/02/01 09:55:02;;;;;;;5.22;1.65;;;;;;;1.45;59.09;98670.84;5065601;28;20485;-70
2022/02/01 09:57:27;;;;;;;10.10;1.88;;;;;;;1.40;59.61;98664.03;5065671;28;20404;-69
2022/02/01 09:59:55;;;;;;;7.00;1.52;;;;;;;1.38;59.77;98656.34;5047381;28;20536;-69
2022/02/01 10:02:22;;;;;;;7.13;1.60;;;;;;;1.38;60.12;98648.69;5064496;28;20024;-69
2022/02/01 10:05:05;;;;;;;12.60;1.60;;;;;;;1.42;60.19;98641.88;5064883;28;20199;-70
2022/02/01 10:07:31;;;;;;;5.70;1.77;;;;;;;1.34;60.36;98619.69;5065291;28;20032;-70
2022/02/01 10:09:59;;;;;;;11.40;2.20;;;;;;;1.47;60.41;98625.66;5065191;28;20025;-70
2022/02/01 10:12:28;;;;;;;9.18;2.00;;;;;;;1.38;60.55;98606.91;5065013;28;20017;-71
2022/02/01 10:15:04;;;;;;;9.40;1.73;;;;;;;1.36;61.03;98620.56;5065406;28;20017;-70
2022/02/01 10:17:38;;;;;;;6.75;1.30;;;;;;;1.29;61.94;98606.06;5065207;28;20025;-70
2022/02/01 10:20:04;;;;;;;4.90;1.65;;;;;;;1.28;61.95;98606.06;5065108;28;20085;-70
2022/02/01 10:22:32;;;;;;;9.10;2.28;;;;;;;1.17;62.60;98578.78;5065051;28;20349;-70
2022/02/01 10:24:57;;;;;;;3.15;1.50;;;;;;;1.26;62.72;98583.06;5065239;28;20037;-70
2022/02/01 10:27:25;;;;;;;7.68;2.03;;;;;;;1.11;63.35;98568.56;5064985;28;20045;-70
2022/02/01 10:30:14;;;;;;;8.98;2.00;;;;;;;1.14;64.54;98570.25;5064824;28;20017;-70
2022/02/01 10:38:01;;;;;;;4.90;1.50;;;;;;;1.02;65.71;98537.91;5064638;28;20135;-70
2022/02/01 10:40:46;;;;;;;4.90;1.30;;;;;;;0.94;66.37;98532.78;5064485;28;20048;-71
2022/02/01 10:43:20;;;;;;;6.50;1.40;;;;;;;0.79;66.89;98513.19;5046710;28;20396;-70
2022/02/01 10:45:47;;;;;;;5.05;1.20;;;;;;;0.83;67.89;98504.69;5064452;28;20420;-71
2022/02/01 10:48:14;;;;;;;7.07;1.75;;;;;;;0.65;68.37;98503.81;5064599;28;20021;-70
2022/02/01 10:50:40;;;;;;;4.00;1.40;;;;;;;0.61;69.22;98476.53;5064569;28;20122;-72
2022/02/01 10:53:16;;;;;;;10.05;1.60;;;;;;;0.56;70.08;98476.53;5064277;28;20029;-71
2022/02/01 10:55:46;;;;;;;8.63;1.80;;;;;;;0.46;70.57;98465.47;5064470;28;20021;-71
2022/02/01 10:58:11;;;;;;;2.13;1.05;;;;;;;0.53;71.12;98445.06;5064277;28;20091;-71
2022/02/01 11:00:37;;;;;;;6.28;1.67;;;;;;;0.38;71.88;98441.66;5064309;28;20033;-70
2022/02/01 11:03:03;;;;;;;1.13;0.60;;;;;;;0.34;72.79;98424.59;5045940;28;20025;-70
2022/02/01 11:05:30;;;;;;;2.15;1.05;;;;;;;0.19;73.57;98416.06;5064343;28;20028;-70
2022/02/01 11:07:55;;;;;;;4.18;1.42;;;;;;;0.31;74.36;98404.19;5064216;28;20490;-71
2022/02/01 11:10:21;;;;;;;2.17;1.00;;;;;;;0.05;75.31;98395.63;5063924;28;20057;-70
2022/02/01 11:12:47;;;;;;;6.10;1.42;;;;;;;-0.22;76.23;98371.78;5046108;28;20032;-70
2022/02/01 11:15:20;;;;;;;2.75;0.88;;;;;;;-0.27;77.10;98360.69;5063692;28;20035;-74
2022/02/01 11:17:48;;;;;;;5.72;1.80;;;;;;;-0.45;77.89;98356.41;5063733;28;20051;-70
2022/02/01 11:20:25;;;;;;;1.88;1.25;;;;;;;-0.39;78.65;98342.00;5045955;28;20131;-71
2022/02/01 11:23:01;;;;;;;1.02;0.90;;;;;;;-0.24;78.90;98350.53;5063925;28;20025;-70
2022/02/01 11:25:42;;;;;;;4.55;1.50;;;;;;;-0.44;79.67;98330.94;5063589;28;20039;-71
2022/02/01 11:30:37;;;;;;;8.85;0.93;;;;;;;-0.41;80.16;98319.88;5063971;28;20025;-71
2022/02/01 11:33:05;;;;;;;6.93;2.00;;;;;;;-0.42;80.50;98310.53;5063453;28;20025;-71
2022/02/01 11:35:31;;;;;;;4.93;1.52;;;;;;;-0.55;81.00;98284.16;5063704;28;20066;-74
2022/02/01 11:38:01;;;;;;;5.35;1.60;;;;;;;-0.29;81.22;98291.84;5045272;28;20049;-73
2022/02/01 11:40:34;;;;;;;2.38;1.63;;;;;;;-0.51;81.62;98285.84;5062467;28;20017;-71
2022/02/01 11:43:04;;;;;;;5.60;1.27;;;;;;;-0.48;82.00;98264.63;5063262;28;20025;-72
2022/02/01 11:45:39;;;;;;;1.88;0.90;;;;;;;-0.52;82.61;98263.78;5063277;28;20032;-75
2022/02/01 11:48:24;;;;;;;3.55;1.25;;;;;;;-0.41;82.39;98261.25;5045372;28;20093;-73
2022/02/01 11:50:53;;;;;;;6.03;1.20;;;;;;;-0.46;82.68;98257.84;5063599;28;20080;-73
2022/02/01 11:53:29;;;;;;;0.82;0.77;;;;;;;-0.40;82.83;98242.56;5063474;28;20021;-73
2022/02/01 11:55:56;;;;;;;6.53;1.20;;;;;;;-0.41;82.37;98238.28;5045108;28;20024;-72
2022/02/01 11:58:38;;;;;;;5.05;0.80;;;;;;;-0.43;82.92;98227.25;5063272;28;20016;-74
2022/02/01 12:01:08;;;;;;;4.07;1.00;;;;;;;-0.32;82.68;98210.25;5045574;28;20029;-75
2022/02/01 12:03:37;;;;;;;5.80;2.40;;;;;;;-0.29;82.42;98200.03;5063328;28;20092;-75
2022/02/01 12:06:08;;;;;;;2.35;0.88;;;;;;;-0.19;82.54;98187.31;5063376;28;20096;-77
2022/02/01 12:08:37;;;;;;;2.72;0.75;;;;;;;-0.23;82.68;98155.00;5063434;28;20017;-75
2022/02/01 12:11:07;;;;;;;1.15;0.88;;;;;;;-0.45;83.23;98168.63;5063133;28;20028;-74
2022/02/01 12:13:35;;;;;;;1.35;1.00;;;;;;;-0.39;83.10;98157.56;5045129;28;20289;-74
2022/02/01 12:16:10;;;;;;;8.48;1.00;;;;;;;-0.28;83.01;98158.41;5063376;28;20477;-74
2022/02/01 12:19:02;;;;;;;2.50;1.17;;;;;;;-0.20;83.00;98157.53;5063300;28;20036;-75
2022/02/01 12:21:58;;;;;;;4.53;1.50;;;;;;;-0.57;83.09;98149.06;5063410;28;20017;-74
2022/02/01 12:24:27;;;;;;;5.85;1.52;;;;;;;-0.61;84.21;98152.47;5063078;28;20021;-74
2022/02/01 12:26:52;;;;;;;2.47;1.42;;;;;;;-0.63;84.29;98129.53;5065055;28;20025;-74
2022/02/01 12:29:18;;;;;;;5.10;1.20;;;;;;;-0.41;83.93;98136.31;5067357;28;20017;-74
2022/02/01 12:31:43;;;;;;;8.30;1.50;;;;;;;-0.33;83.22;98129.50;5066920;28;20378;-73
2022/02/01 12:34:13;;;;;;;2.10;1.00;;;;;;;-0.63;84.17;98101.50;5066989;28;20055;-74
2022/02/01 12:36:41;;;;;;;3.08;1.02;;;;;;;-0.51;84.63;98102.31;5067280;28;20558;-75
2022/02/01 12:39:18;;;;;;;5.38;1.13;;;;;;;-0.51;84.53;98102.31;5066616;28;20040;-74
2022/02/01 12:42:01;;;;;;;3.85;1.10;;;;;;;-0.42;84.45;98096.38;5066826;28;20082;-73
2022/02/01 12:46:59;;;;;;;4.22;1.17;;;;;;;-0.30;84.46;98087.84;5067295;28;20088;-74
2022/02/01 12:49:40;;;;;;;6.47;1.40;;;;;;;-0.36;83.68;98085.31;5066972;28;20021;-72
2022/02/01 12:52:16;;;;;;;3.88;1.15;;;;;;;-0.42;83.96;98066.66;5048883;28;20039;-73
2022/02/01 12:54:42;;;;;;;3.70;1.00;;;;;;;-0.42;83.92;98056.44;5066732;28;20164;-72
2022/02/01 12:57:17;;;;;;;2.67;0.90;;;;;;;-0.09;82.45;98043.59;5066625;28;20033;-73
2022/02/01 12:59:53;;;;;;;2.40;1.30;;;;;;;-0.41;83.28;98021.59;5066864;28;20017;-72
2022/02/01 13:02:24;;;;;;;2.88;0.93;;;;;;;-0.44;83.72;98016.50;5066647;28;20048;-69
2022/02/01 13:04:55;;;;;;;2.22;1.17;;;;;;;-0.40;83.36;98013.09;5066429;28;20031;-71
2022/02/01 13:07:46;;;;;;;3.47;1.30;;;;;;;-0.56;84.48;98002.09;5066827;28;20083;-74
2022/02/01 13:21:12;;;;;;;3.70;1.35;;;;;;;-0.56;85.03;97951.94;5066503;28;20025;-73
2022/02/01 13:23:42;;;;;;;3.88;1.23;;;;;;;-0.34;83.68;97943.38;5066075;28;20040;-74